Wilmington, DE (19810)

6:43 PM EDT on July 04, 2015 (GMT -0400)
Meriden | | Change Station
CLOSE
Current Station
Personal Weather Station
Location: Wilmington, DE
Elevation: 325 ft
Nearby Weather Stations

Elev 325 ft 39.80 °N, 75.49 °W | Updated 5 minutes ago

Overcast
Overcast
71.6 °F
Feels Like 72 °F
N
2.7
Wind Variable Wind from West

Today
High -- | Low -- °F
--% Chance of Precip.
Yesterday
High -- | Low -- °F
Precip. -- in
5:38 AM 8:33 PM
Waning Gibbous, 89% visible
Pressure 29.94 in
Visibility 10.0 miles
Clouds Overcast 3100 ft
Heat Index 72 °F
Dew Point 65 °F
Humidity 80%
Rainfall 0.00 in
Snow Depth Not available.
UV 1 out of 12
Pollen .60 out of 12
Air Quality Not available.
Flu Activity Not available.
METAR KILG 042151Z 05010KT 10SM OVC031 23/17 A2994 RMK AO2 SLP138 T02280167

More Conditions Fewer Conditions

Pressure 29.94 in
Visibility 10.0 miles
Clouds Overcast 3100 ft
Heat Index 72 °F
Dew Point 65 °F
Humidity 80%
Rainfall 0.00 in
Snow Depth Not available.
UV 1 out of 12
Pollen .60 out of 12
Air Quality Not available.
Flu Activity Not available.
METAR KILG 042151Z 05010KT 10SM OVC031 23/17 A2994 RMK AO2 SLP138 T02280167

More Conditions Fewer Conditions

Nowcast | as of 5:13 PM EDT on July 4, 2015

At 508 PM EDT...scattered showers and sprinkles were located over eastern Pennsylvania. This activity will move east at 25 mph toward the Delaware River and cross into western portions of New Jersey through 645 PM. Locations potentially impacted include... Philadelphia...Allentown...reading...Easton...West Chester... Newton...Lehighton...Mount Pocono...Bethlehem...Norristown... Pottstown...Dover...Phoenixville...Lansdale...West Norriton... Hopatcong...Forks...East Norriton...Coatesville and Yeadon. The rainfall with this showers will be light and brief. Lat...Lon 4112 7506 4108 7503 4110 7498 4102 7448 4034 7490 4034 7494 4032 7491 3971 7528 3988 7599 4011 7594 4014 7588 4031 7614 4063 7600 4074 7576 4084 7592 4096 7586 4101 7573 4109 7577 4112 7564 4120 7557

×

10-Day Weather Forecast

×

Almanac

Astronomy

Jul. 04, 2015 Rise Set
Actual Time
Civil Twilight
Nautical Twilight
Astronomical Twilight
Moon
Length of Visible Light
Length of Day
Tomorrow will be .
, % of the Moon is Illuminated

Today's Extremes

State Highs State Lows

Community

WunderPhotos

Upload Photos

1,835,105 photos uploaded!

WunderBlogs® & News

Nearby

Air Quality

  Air Quality AQ Index Pollutant
Not available.

Snow Depth

Station Depth Elevation

Earthquake Activity

City Distance Mag. Time & Date
Minimum magnitude displayed is 2.5.

Coastal Water Temperatures

Place Temperature

Stations

Nearby Weather Stations

Station Location Temp. Windchill Dew Point Humidity Wind Precip. Elev Updated Type